createdAt,value
2023-10-11T00:00:52.280Z,70.14
2023-10-11T00:03:33.298Z,70.05
2023-10-11T00:06:05.198Z,70.09
2023-10-11T00:08:41.038Z,69.53
2023-10-11T00:11:08.049Z,69.13
2023-10-11T00:13:36.400Z,69.64
2023-10-11T00:16:08.136Z,69.56
2023-10-11T00:18:36.654Z,69.36
2023-10-11T00:21:16.366Z,69.67
2023-10-11T00:23:45.027Z,70.03
2023-10-11T00:26:14.978Z,69.77
2023-10-11T00:28:46.878Z,70.00
2023-10-11T00:31:18.373Z,69.70
2023-10-11T00:33:47.722Z,69.47
2023-10-11T00:36:16.851Z,69.40
2023-10-11T00:38:50.805Z,69.72
2023-10-11T00:41:21.967Z,69.69
2023-10-11T00:43:52.005Z,69.96
2023-10-11T00:46:22.640Z,69.53
2023-10-11T00:48:54.277Z,70.06
2023-10-11T00:51:24.471Z,70.09
2023-10-11T00:53:57.126Z,70.37
2023-10-11T00:56:27.283Z,70.39
2023-10-11T00:58:56.464Z,70.45
2023-10-11T01:01:23.605Z,70.49
2023-10-11T01:03:52.664Z,70.49
2023-10-11T01:06:20.326Z,70.84
2023-10-11T01:08:49.131Z,70.71
2023-10-11T01:11:16.962Z,70.55
2023-10-11T01:13:51.507Z,70.38
2023-10-11T01:16:21.324Z,70.66
2023-10-11T01:18:48.710Z,70.94
2023-10-11T01:21:15.776Z,71.06
2023-10-11T01:23:44.021Z,71.02
2023-10-11T01:26:11.950Z,71.18
2023-10-11T01:28:52.388Z,71.05
2023-10-11T01:31:19.376Z,70.79
2023-10-11T01:33:49.797Z,71.03
2023-10-11T01:36:23.711Z,70.93
2023-10-11T01:38:51.410Z,71.13
2023-10-11T01:41:22.893Z,71.23
2023-10-11T01:43:50.720Z,71.32
2023-10-11T01:46:18.918Z,71.34
2023-10-11T01:48:46.294Z,71.33
2023-10-11T01:51:16.554Z,71.58
2023-10-11T01:53:44.956Z,71.74
2023-10-11T01:56:14.240Z,71.82
2023-10-11T01:58:44.103Z,71.81
2023-10-11T02:01:26.527Z,72.00
2023-10-11T02:03:55.905Z,72.45
2023-10-11T02:06:23.934Z,72.75
2023-10-11T02:08:53.756Z,72.83
2023-10-11T02:11:25.034Z,72.85
2023-10-11T02:13:53.374Z,72.91
2023-10-11T02:16:20.128Z,73.21
2023-10-11T02:18:59.513Z,73.23
2023-10-11T02:21:37.369Z,73.19
2023-10-11T02:24:10.222Z,73.49
2023-10-11T02:26:36.942Z,73.31
2023-10-11T02:29:07.505Z,73.07
2023-10-11T02:31:38.089Z,72.85
2023-10-11T02:34:13.501Z,72.74
2023-10-11T02:36:43.515Z,73.10
2023-10-11T02:39:22.745Z,73.35
2023-10-11T02:41:50.983Z,73.51
2023-10-11T02:44:23.229Z,73.61
2023-10-11T02:46:50.755Z,73.41
2023-10-11T02:49:20.593Z,73.51
2023-10-11T02:52:00.303Z,74.09
2023-10-11T02:54:39.105Z,74.54
2023-10-11T02:57:06.697Z,74.89
2023-10-11T02:59:33.778Z,74.54
2023-10-11T03:02:00.662Z,74.80
2023-10-11T03:04:39.613Z,74.59
2023-10-11T03:07:13.413Z,74.55
2023-10-11T03:09:43.289Z,74.32
2023-10-11T03:12:20.257Z,74.89
2023-10-11T03:14:47.876Z,74.90
2023-10-11T03:17:15.605Z,74.89
2023-10-11T03:19:43.093Z,75.12
2023-10-11T03:22:12.268Z,75.29
2023-10-11T03:24:41.413Z,75.37
2023-10-11T03:27:13.770Z,75.23
2023-10-11T03:29:40.994Z,75.56
2023-10-11T03:32:07.993Z,75.70
2023-10-11T03:34:34.870Z,76.27
2023-10-11T03:37:10.859Z,76.51
2023-10-11T03:39:37.672Z,76.38
2023-10-11T03:42:07.819Z,76.55
2023-10-11T03:44:40.615Z,76.54
2023-10-11T03:47:10.555Z,76.44
2023-10-11T03:49:50.428Z,76.21
2023-10-11T03:52:31.280Z,76.15
2023-10-11T03:55:10.285Z,76.24
2023-10-11T03:57:41.942Z,76.34
2023-10-11T04:00:25.906Z,76.35
2023-10-11T04:02:59.384Z,76.47
2023-10-11T04:05:34.800Z,76.72
2023-10-11T04:08:06.502Z,76.73
2023-10-11T04:10:40.267Z,76.78
2023-10-11T04:13:14.996Z,76.84
2023-10-11T04:15:42.480Z,77.20
2023-10-11T04:18:28.705Z,77.13
2023-10-11T04:21:24.893Z,76.95
2023-10-11T04:23:58.001Z,77.06
2023-10-11T04:26:36.217Z,76.96
2023-10-11T04:29:19.426Z,76.66
2023-10-11T04:32:01.826Z,76.33
2023-10-11T04:34:32.402Z,76.35
2023-10-11T04:37:07.687Z,76.24
2023-10-11T04:39:34.841Z,76.13
2023-10-11T04:42:03.076Z,76.12
2023-10-11T04:44:42.864Z,76.36
2023-10-11T04:47:10.359Z,76.35
2023-10-11T04:49:37.141Z,76.43
2023-10-11T04:52:11.399Z,76.57
2023-10-11T04:54:42.981Z,76.48
2023-10-11T04:57:17.787Z,75.96
2023-10-11T04:59:47.251Z,75.05
2023-10-11T05:02:19.535Z,74.74
2023-10-11T05:04:47.594Z,74.39
2023-10-11T05:07:20.186Z,73.46
2023-10-11T05:09:57.327Z,73.20
2023-10-11T05:12:24.663Z,72.80
2023-10-11T05:14:54.258Z,72.40
2023-10-11T05:17:23.704Z,71.47
2023-10-11T05:20:04.698Z,71.28
2023-10-11T05:22:49.699Z,70.51
2023-10-11T05:25:20.923Z,70.12
2023-10-11T05:27:50.195Z,70.01
2023-10-11T05:30:28.436Z,70.27
2023-10-11T05:32:55.853Z,69.98
2023-10-11T05:35:24.707Z,69.49
2023-10-11T05:38:13.051Z,69.55
2023-10-11T05:40:58.230Z,68.89
2023-10-11T05:43:43.483Z,69.14
2023-10-11T05:46:28.973Z,68.87
2023-10-11T05:49:14.337Z,68.73
2023-10-11T05:51:41.331Z,68.12
2023-10-11T05:54:11.814Z,68.11
2023-10-11T05:56:48.292Z,67.33
2023-10-11T05:59:17.769Z,66.82
2023-10-11T06:01:44.885Z,66.62
2023-10-11T06:04:14.637Z,66.59
2023-10-11T06:06:47.488Z,66.39
2023-10-11T06:09:18.657Z,65.81
2023-10-11T06:11:48.795Z,65.08
2023-10-11T06:14:17.634Z,65.03
2023-10-11T06:16:50.230Z,65.93
2023-10-11T06:19:17.286Z,65.46
2023-10-11T06:21:56.939Z,64.79
2023-10-11T06:24:31.166Z,63.33
2023-10-11T06:27:12.109Z,61.79
2023-10-11T06:29:39.932Z,59.33
2023-10-11T06:32:19.969Z,59.72
2023-10-11T06:34:48.187Z,58.40
2023-10-11T06:37:18.728Z,56.72
2023-10-11T06:39:46.558Z,56.71
2023-10-11T06:42:14.884Z,56.92
2023-10-11T06:44:48.332Z,55.45
2023-10-11T06:47:16.197Z,54.08
2023-10-11T06:49:48.220Z,54.65
2023-10-11T06:52:25.745Z,53.63
2023-10-11T06:55:12.193Z,53.06
2023-10-11T06:57:42.548Z,52.29
2023-10-11T07:00:21.584Z,52.70
2023-10-11T07:03:10.349Z,51.49
2023-10-11T07:05:41.314Z,50.28
2023-10-11T07:08:11.703Z,49.71
2023-10-11T07:10:46.002Z,49.53
2023-10-11T07:13:13.876Z,49.50
2023-10-11T07:15:47.596Z,49.19
2023-10-11T07:18:23.230Z,49.23
2023-10-11T07:20:58.773Z,46.88
2023-10-11T07:23:35.893Z,45.54
2023-10-11T07:26:23.908Z,45.58
2023-10-11T07:28:52.179Z,45.75
2023-10-11T07:31:32.684Z,45.13
2023-10-11T07:34:00.394Z,44.62
2023-10-11T07:36:29.698Z,45.33
2023-10-11T07:38:57.425Z,44.80
2023-10-11T07:41:29.008Z,44.78
2023-10-11T07:43:57.342Z,43.69
2023-10-11T07:46:25.045Z,43.54
2023-10-11T07:49:04.891Z,43.34
2023-10-11T07:51:36.841Z,42.58
2023-10-11T07:54:08.040Z,41.98
2023-10-11T07:56:38.646Z,42.22
2023-10-11T07:59:09.382Z,43.39
2023-10-11T08:01:46.946Z,43.30
2023-10-11T08:04:18.534Z,43.21
2023-10-11T08:06:45.947Z,43.88
2023-10-11T08:09:20.303Z,44.31
2023-10-11T08:11:53.881Z,43.41
2023-10-11T08:14:24.458Z,42.81
2023-10-11T08:16:53.119Z,43.63
2023-10-11T08:19:22.063Z,41.80
2023-10-11T08:22:00.907Z,42.29
2023-10-11T08:24:28.883Z,41.93
2023-10-11T08:27:08.923Z,42.02
2023-10-11T08:29:43.602Z,42.03
2023-10-11T08:32:15.644Z,41.53
2023-10-11T08:34:46.698Z,41.13
2023-10-11T08:37:15.389Z,40.83
2023-10-11T08:39:44.879Z,41.28
2023-10-11T08:42:15.853Z,41.03
2023-10-11T08:44:50.530Z,41.32
2023-10-11T08:47:22.336Z,41.74
2023-10-11T08:49:53.866Z,42.39
2023-10-11T08:52:30.436Z,43.30
2023-10-11T08:55:01.884Z,41.58
2023-10-11T08:57:32.894Z,41.53
2023-10-11T09:00:04.056Z,42.91
2023-10-11T09:02:34.898Z,41.22
2023-10-11T09:05:32.145Z,41.55
2023-10-11T09:08:07.214Z,41.39
2023-10-11T09:10:40.380Z,42.03
2023-10-11T09:13:11.878Z,41.32
2023-10-11T09:15:44.890Z,41.08
2023-10-11T09:18:22.552Z,41.25
2023-10-11T09:21:08.969Z,40.45
2023-10-11T09:23:48.065Z,40.21
2023-10-11T09:26:42.299Z,40.72
2023-10-11T09:29:16.865Z,39.75
2023-10-11T09:32:05.904Z,41.14
2023-10-11T09:34:42.919Z,39.28
2023-10-11T09:37:13.937Z,39.35
2023-10-11T09:47:57.906Z,36.98
2023-10-11T09:50:41.812Z,37.07
2023-10-11T09:53:13.890Z,37.47
2023-10-11T09:55:52.553Z,37.09
2023-10-11T09:58:29.510Z,37.18
2023-10-11T10:01:09.345Z,38.38
2023-10-11T10:03:39.338Z,38.19
2023-10-11T10:06:19.208Z,38.25
2023-10-11T10:08:50.953Z,38.61
2023-10-11T10:11:20.464Z,38.63
2023-10-11T10:14:02.560Z,38.76
2023-10-11T10:17:13.876Z,40.42
2023-10-11T10:19:41.454Z,41.00
2023-10-11T10:22:23.822Z,41.34
2023-10-11T10:24:57.005Z,41.81
2023-10-11T10:27:23.915Z,42.66
2023-10-11T10:29:55.414Z,42.92
2023-10-11T10:32:22.384Z,42.34
2023-10-11T10:34:49.326Z,42.84
2023-10-11T10:37:58.316Z,42.06
2023-10-11T10:40:43.598Z,40.80
2023-10-11T10:43:21.162Z,40.89
2023-10-11T10:45:52.470Z,41.42
2023-10-11T10:48:20.592Z,41.94
2023-10-11T10:50:49.676Z,41.66
2023-10-11T10:53:18.015Z,42.32
2023-10-11T10:55:45.333Z,42.70
2023-10-11T10:58:19.407Z,42.65
2023-10-11T11:00:53.115Z,42.23
2023-10-11T11:03:21.267Z,41.94
2023-10-11T11:06:01.878Z,42.52
2023-10-11T11:08:32.514Z,42.99
2023-10-11T11:11:19.760Z,42.39
2023-10-11T11:13:50.955Z,42.11
2023-10-11T11:16:18.878Z,42.36
2023-10-11T11:18:45.958Z,42.36
2023-10-11T11:21:20.778Z,42.95
2023-10-11T11:23:50.343Z,42.61
2023-10-11T11:28:52.023Z,41.66
2023-10-11T11:31:24.817Z,41.89
2023-10-11T11:34:05.995Z,41.70
2023-10-11T11:37:00.412Z,41.22
2023-10-11T11:39:50.389Z,41.51
2023-10-11T11:42:20.508Z,40.89
2023-10-11T11:44:48.140Z,40.86
2023-10-11T11:47:23.542Z,40.99
2023-10-11T11:49:55.091Z,40.83
2023-10-11T11:52:22.585Z,40.97
2023-10-11T11:54:49.364Z,41.36
2023-10-11T11:57:16.277Z,40.86
2023-10-11T11:59:44.645Z,40.67
2023-10-11T12:02:17.802Z,40.52
2023-10-11T12:04:45.332Z,40.35
2023-10-11T12:07:12.426Z,40.17
2023-10-11T12:09:52.138Z,40.20
2023-10-11T12:12:26.698Z,40.25
2023-10-11T12:14:53.717Z,40.20
2023-10-11T12:17:21.100Z,40.22
2023-10-11T12:19:53.976Z,39.97
2023-10-11T12:22:22.839Z,39.91
2023-10-11T12:24:50.835Z,39.71
2023-10-11T12:27:18.967Z,39.69
2023-10-11T12:30:01.095Z,39.84
2023-10-11T12:32:36.947Z,39.95
2023-10-11T12:35:08.603Z,40.08
2023-10-11T12:37:36.202Z,39.94
2023-10-11T12:40:12.412Z,39.93
2023-10-11T12:42:45.627Z,40.34
2023-10-11T12:45:17.398Z,40.71
2023-10-11T12:47:45.371Z,40.88
2023-10-11T12:50:15.649Z,41.11
2023-10-11T12:52:44.526Z,40.53
2023-10-11T12:55:13.698Z,40.60
2023-10-11T12:57:41.746Z,40.56
2023-10-11T13:00:37.386Z,40.10
2023-10-11T13:03:24.494Z,40.31
2023-10-11T13:05:53.468Z,40.48
2023-10-11T13:08:29.379Z,40.69
2023-10-11T13:10:56.430Z,40.57
2023-10-11T13:13:23.921Z,40.32
2023-10-11T13:16:02.343Z,40.72
2023-10-11T13:18:34.011Z,39.96
2023-10-11T13:21:01.150Z,39.81
2023-10-11T13:23:30.175Z,39.58
2023-10-11T13:26:09.914Z,39.38
2023-10-11T13:28:41.136Z,39.25
2023-10-11T13:31:11.030Z,39.33
2023-10-11T13:33:39.199Z,39.64
2023-10-11T13:36:09.860Z,39.93
2023-10-11T13:38:38.139Z,40.12
2023-10-11T13:41:06.726Z,40.67
2023-10-11T13:43:38.090Z,40.96
2023-10-11T13:46:08.262Z,40.90
2023-10-11T13:48:42.523Z,41.06
2023-10-11T13:51:17.507Z,41.19
2023-10-11T13:53:45.023Z,41.37
2023-10-11T13:56:25.438Z,41.77
2023-10-11T13:58:53.365Z,42.14
2023-10-11T14:01:36.502Z,42.43
2023-10-11T14:04:19.805Z,42.72
2023-10-11T14:07:22.148Z,43.15
2023-10-11T14:09:55.067Z,43.40
2023-10-11T14:12:27.936Z,43.78
2023-10-11T14:14:55.966Z,43.67
2023-10-11T14:17:25.669Z,43.61
2023-10-11T14:19:54.121Z,43.92
2023-10-11T14:22:24.738Z,43.96
2023-10-11T14:24:52.533Z,44.02
2023-10-11T14:27:20.509Z,44.07
2023-10-11T14:29:48.290Z,43.87
2023-10-11T14:32:17.504Z,43.25
2023-10-11T14:34:46.435Z,42.83
2023-10-11T14:37:16.665Z,43.47
2023-10-11T14:39:47.932Z,43.45
2023-10-11T14:42:16.036Z,43.79
2023-10-11T14:44:43.450Z,44.21
2023-10-11T14:47:11.479Z,44.56
2023-10-11T14:49:38.609Z,44.29
2023-10-11T14:52:08.586Z,44.27
2023-10-11T14:54:40.017Z,44.90
2023-10-11T14:57:08.748Z,45.42
2023-10-11T14:59:35.921Z,45.11
2023-10-11T15:02:03.829Z,44.73
2023-10-11T15:04:34.468Z,45.52
2023-10-11T15:07:07.231Z,47.17
2023-10-11T15:09:35.440Z,47.61
2023-10-11T15:12:03.180Z,48.17
2023-10-11T15:14:30.331Z,49.13
2023-10-11T15:17:00.403Z,48.90
2023-10-11T15:19:29.063Z,49.74
2023-10-11T15:21:56.228Z,49.42
2023-10-11T15:24:24.060Z,49.51
2023-10-11T15:26:51.442Z,48.46
2023-10-11T15:29:18.668Z,48.35
2023-10-11T15:31:46.262Z,48.58
2023-10-11T15:34:15.036Z,49.44
2023-10-11T15:36:43.437Z,49.73
2023-10-11T15:39:11.441Z,48.55
2023-10-11T15:41:38.984Z,48.24
2023-10-11T15:44:06.108Z,48.62
2023-10-11T15:46:34.992Z,49.11
2023-10-11T15:49:08.349Z,49.52
2023-10-11T15:51:35.546Z,50.17
2023-10-11T15:54:03.054Z,50.46
2023-10-11T15:56:32.742Z,50.72
2023-10-11T15:59:00.139Z,51.15
2023-10-11T16:01:28.624Z,51.35
2023-10-11T16:03:57.187Z,51.65
2023-10-11T16:06:27.035Z,51.62
2023-10-11T16:08:54.244Z,52.07
2023-10-11T16:11:23.013Z,52.37
2023-10-11T16:13:51.175Z,52.60
2023-10-11T16:16:18.909Z,52.84
2023-10-11T16:18:47.090Z,53.28
2023-10-11T16:21:18.564Z,53.47
2023-10-11T16:23:47.346Z,53.53
2023-10-11T16:26:15.199Z,54.08
2023-10-11T16:28:43.303Z,54.20
2023-10-11T16:31:13.589Z,54.17
2023-10-11T16:33:42.420Z,54.15
2023-10-11T16:36:11.789Z,53.89
2023-10-11T16:38:45.969Z,52.52
2023-10-11T16:41:19.040Z,52.32
2023-10-11T16:43:46.322Z,52.00
2023-10-11T16:46:36.728Z,51.74
2023-10-11T16:49:05.374Z,51.17
2023-10-11T16:51:33.019Z,50.87
2023-10-11T16:54:00.935Z,50.49
2023-10-11T16:56:35.022Z,49.57
2023-10-11T16:59:06.239Z,49.33
2023-10-11T17:01:36.001Z,49.44
2023-10-11T17:04:08.166Z,49.55
2023-10-11T17:06:36.201Z,49.50
2023-10-11T17:09:07.771Z,49.05
2023-10-11T17:11:35.741Z,48.37
2023-10-11T17:14:09.288Z,47.97
2023-10-11T17:16:37.962Z,47.59
2023-10-11T17:19:09.709Z,47.57
2023-10-11T17:21:46.655Z,47.76
2023-10-11T17:24:14.744Z,48.47
2023-10-11T17:26:43.056Z,49.15
2023-10-11T17:29:11.272Z,50.08
2023-10-11T17:31:38.500Z,50.86
2023-10-11T17:34:08.802Z,51.56
2023-10-11T17:36:38.158Z,52.28
2023-10-11T17:39:06.071Z,53.48
2023-10-11T17:41:39.055Z,54.01
2023-10-11T17:44:08.965Z,54.40
2023-10-11T17:46:36.786Z,54.05
2023-10-11T17:49:05.162Z,54.20
2023-10-11T17:51:32.601Z,54.35
2023-10-11T17:54:02.838Z,55.14
2023-10-11T17:56:31.140Z,55.60
2023-10-11T17:59:09.797Z,54.96
2023-10-11T18:01:58.223Z,55.08
2023-10-11T18:04:25.611Z,55.10
2023-10-11T18:06:54.054Z,55.36
2023-10-11T18:09:21.906Z,55.28
2023-10-11T18:11:49.222Z,55.73
2023-10-11T18:14:25.319Z,56.32
2023-10-11T18:16:52.523Z,56.74
2023-10-11T18:19:21.268Z,56.48
2023-10-11T18:21:49.429Z,57.42
2023-10-11T18:24:19.024Z,56.83
2023-10-11T18:26:48.995Z,57.42
2023-10-11T18:29:19.212Z,58.11
2023-10-11T18:31:49.092Z,57.94
2023-10-11T18:34:18.547Z,58.27
2023-10-11T18:36:48.291Z,58.92
2023-10-11T18:39:18.974Z,59.05
2023-10-11T18:41:49.733Z,59.73
2023-10-11T18:44:17.084Z,59.88
2023-10-11T18:46:47.518Z,60.27
2023-10-11T18:49:17.339Z,60.67
2023-10-11T18:51:45.415Z,60.63
2023-10-11T18:54:14.438Z,60.74
2023-10-11T18:56:41.810Z,60.56
2023-10-11T18:59:09.415Z,61.11
2023-10-11T19:01:36.482Z,60.77
2023-10-11T19:04:10.468Z,61.28
2023-10-11T19:06:39.667Z,61.09
2023-10-11T19:09:07.678Z,61.44
2023-10-11T19:11:37.552Z,61.48
2023-10-11T19:14:04.995Z,61.43
2023-10-11T19:16:33.458Z,61.49
2023-10-11T19:19:01.140Z,61.66
2023-10-11T19:21:28.628Z,61.49
2023-10-11T19:23:57.027Z,60.67
2023-10-11T19:26:24.153Z,61.25
2023-10-11T19:28:53.096Z,61.34
2023-10-11T19:31:20.204Z,61.49
2023-10-11T19:33:47.809Z,60.95
2023-10-11T19:36:16.725Z,61.24
2023-10-11T19:38:43.860Z,61.50
2023-10-11T19:41:11.948Z,61.36
2023-10-11T19:43:38.794Z,61.92
2023-10-11T19:46:07.400Z,62.69
2023-10-11T19:48:35.978Z,63.59
2023-10-11T19:51:03.052Z,64.31
2023-10-11T19:53:30.336Z,64.78
2023-10-11T19:55:58.944Z,65.15
2023-10-11T19:58:26.272Z,65.05
2023-10-11T20:00:53.485Z,65.69
2023-10-11T20:03:27.613Z,66.21
2023-10-11T20:05:55.048Z,66.43
2023-10-11T20:08:23.292Z,66.70
2023-10-11T20:11:01.783Z,67.04
2023-10-11T20:13:28.615Z,67.11
2023-10-11T20:15:56.954Z,67.66
2023-10-11T20:18:24.321Z,67.98
2023-10-11T20:20:55.830Z,67.59
2023-10-11T20:23:23.333Z,67.84
2023-10-11T20:25:51.378Z,67.65
2023-10-11T20:28:18.509Z,67.48
2023-10-11T20:30:52.810Z,67.39
2023-10-11T20:33:23.429Z,66.97
2023-10-11T20:35:52.614Z,66.53
2023-10-11T20:38:21.557Z,66.14
2023-10-11T20:40:48.685Z,66.39
2023-10-11T20:43:17.969Z,66.31
2023-10-11T20:45:47.511Z,66.73
2023-10-11T20:48:15.693Z,66.22
2023-10-11T20:50:43.792Z,66.47
2023-10-11T20:53:11.743Z,66.27
2023-10-11T20:55:43.419Z,66.24
2023-10-11T20:58:15.324Z,65.58
2023-10-11T21:01:06.269Z,65.03
2023-10-11T21:03:36.293Z,64.47
2023-10-11T21:06:03.277Z,64.52
2023-10-11T21:08:31.482Z,64.18
2023-10-11T21:10:58.571Z,64.21
2023-10-11T21:13:29.491Z,64.01
2023-10-11T21:16:00.588Z,63.47
2023-10-11T21:18:27.973Z,62.87
2023-10-11T21:20:55.259Z,61.89
2023-10-11T21:23:22.695Z,61.08
2023-10-11T21:26:03.032Z,61.16
2023-10-11T21:28:32.097Z,61.49
2023-10-11T21:30:59.758Z,60.83
2023-10-11T21:33:29.616Z,61.04
2023-10-11T21:35:59.519Z,60.24
2023-10-11T21:38:26.377Z,60.35
2023-10-11T21:40:56.016Z,60.01
2023-10-11T21:43:24.035Z,59.15
2023-10-11T21:45:51.676Z,59.28
2023-10-11T21:48:20.081Z,59.04
2023-10-11T21:50:46.840Z,58.77
2023-10-11T21:53:14.655Z,58.05
2023-10-11T21:55:42.821Z,57.74
2023-10-11T21:58:11.120Z,57.93
2023-10-11T22:00:48.274Z,57.70
2023-10-11T22:03:20.117Z,58.04
2023-10-11T22:06:05.396Z,58.31
2023-10-11T22:08:36.086Z,58.24
2023-10-11T22:11:04.833Z,58.04
2023-10-11T22:13:34.650Z,58.00
2023-10-11T22:16:03.021Z,57.86
2023-10-11T22:18:30.007Z,57.88
2023-10-11T22:20:59.252Z,57.98
2023-10-11T22:23:26.508Z,58.26
2023-10-11T22:25:53.457Z,58.21
2023-10-11T22:28:20.356Z,58.53
2023-10-11T22:30:47.952Z,58.33
2023-10-11T22:33:15.051Z,58.23
2023-10-11T22:35:45.091Z,58.35
2023-10-11T22:38:12.064Z,58.44
2023-10-11T22:40:39.485Z,58.63
2023-10-11T22:43:27.824Z,58.44
2023-10-11T22:45:57.829Z,58.81
2023-10-11T22:48:25.472Z,59.30
2023-10-11T22:50:52.528Z,59.61
2023-10-11T22:53:23.259Z,59.34
2023-10-11T22:55:50.775Z,59.30
2023-10-11T22:58:18.853Z,59.51
2023-10-11T23:00:46.690Z,59.60
2023-10-11T23:03:14.326Z,59.75
2023-10-11T23:05:43.865Z,60.26
2023-10-11T23:08:10.756Z,60.07
2023-10-11T23:10:44.301Z,60.56
2023-10-11T23:13:12.437Z,60.64
2023-10-11T23:16:05.680Z,60.46
2023-10-11T23:18:44.037Z,59.91
2023-10-11T23:21:16.433Z,60.48
2023-10-11T23:23:43.261Z,61.14
2023-10-11T23:26:12.970Z,60.67
2023-10-11T23:28:40.222Z,60.99
2023-10-11T23:31:16.632Z,61.17
2023-10-11T23:33:50.975Z,61.38
2023-10-11T23:36:34.700Z,61.47
2023-10-11T23:39:02.186Z,61.76
2023-10-11T23:41:36.265Z,61.66
2023-10-11T23:44:22.704Z,62.00
2023-10-11T23:46:57.285Z,62.51
2023-10-11T23:49:41.124Z,62.50
2023-10-11T23:52:21.454Z,62.40
2023-10-11T23:54:51.193Z,62.82
2023-10-11T23:57:22.649Z,62.99
2023-10-11T23:59:50.250Z,62.87
